Terminal Aerodrome Forecast
Issued by NWS

Home | Current Version | Previous Version | Text Only | Print | Product List | Glossary On
Versions: 1 2 3 4 5 6 7 8 9 10 11 12 13 14 15 16
591
FTUS46 KSGX 211734
TAFSNA
TAF
KSNA 211734Z 2118/2218 VRB06KT P6SM SCT025
     FM212000 22009KT P6SM FEW025
     FM220200 VRB05KT P6SM FEW015
     FM220900 VRB03KT P6SM BKN015
     FM221700 VRB05KT P6SM SCT018=

USA.gov is the U.S. government's official web portal to all federal, state and local government web resources and services.